Time,TemperatureF,DewpointF,PressureIn,WindDirection,WindDirectionDegrees,WindSpeedMPH,WindSpeedGustMPH,Humidity,HourlyPrecipIn,Conditions,Clouds,dailyrainin,SoftwareType,DateUTC
2013-10-26 00:04:00,51.0,36.0,29.62,NW,314,6.0,8.0,56,0.00,,,0.00,Meteo,2013-10-26 05:04:00,
2013-10-26 00:09:00,51.0,36.0,29.62,NW,315,4.0,8.0,56,0.00,,,0.00,Meteo,2013-10-26 05:09:00,
2013-10-26 00:14:00,50.0,35.0,29.62,NW,310,5.0,7.0,57,0.00,,,0.00,Meteo,2013-10-26 05:14:00,
2013-10-26 00:19:00,50.0,36.0,29.62,WNW,300,4.0,7.0,58,0.00,,,0.00,Meteo,2013-10-26 05:19:00,
2013-10-26 00:24:00,50.0,36.0,29.62,NW,317,3.0,7.0,59,0.00,,,0.00,Meteo,2013-10-26 05:24:00,
2013-10-26 00:29:00,50.0,36.0,29.62,WNW,285,2.0,4.0,59,0.00,,,0.00,Meteo,2013-10-26 05:29:00,
2013-10-26 00:34:00,50.0,37.0,29.62,NW,306,2.0,7.0,61,0.00,,,0.00,Meteo,2013-10-26 05:34:00,
2013-10-26 00:40:00,49.0,36.0,29.62,NW,325,4.0,7.0,61,0.00,,,0.00,Meteo,2013-10-26 05:40:00,
2013-10-26 00:45:00,49.0,37.0,29.62,NW,309,2.0,6.0,62,0.00,,,0.00,Meteo,2013-10-26 05:45:00,
2013-10-26 00:50:00,49.0,36.0,29.62,WNW,285,3.0,7.0,61,0.00,,,0.00,Meteo,2013-10-26 05:50:00,
2013-10-26 00:55:00,49.0,36.0,29.62,WNW,300,5.0,14.0,61,0.00,,,0.00,Meteo,2013-10-26 05:55:00,
2013-10-26 01:00:00,49.0,36.0,29.62,WNW,288,3.0,6.0,61,0.00,,,0.00,Meteo,2013-10-26 06:00:00,
2013-10-26 01:05:00,49.0,36.0,29.62,WNW,302,2.0,6.0,61,0.00,,,0.00,Meteo,2013-10-26 06:05:00,
2013-10-26 01:10:00,49.0,36.0,29.63,WNW,295,5.0,7.0,61,0.00,,,0.00,Meteo,2013-10-26 06:10:00,
2013-10-26 01:15:00,49.0,37.0,29.63,WNW,291,4.0,8.0,62,0.00,,,0.00,Meteo,2013-10-26 06:15:00,
2013-10-26 01:20:00,49.0,37.0,29.63,WNW,294,3.0,5.0,62,0.00,,,0.00,Meteo,2013-10-26 06:20:00,
2013-10-26 01:25:00,49.0,36.0,29.63,NW,309,6.0,11.0,61,0.00,,,0.00,Meteo,2013-10-26 06:25:00,
2013-10-26 01:30:00,49.0,37.0,29.63,WNW,295,6.0,10.0,62,0.00,,,0.00,Meteo,2013-10-26 06:30:00,
2013-10-26 01:35:00,48.0,35.0,29.64,NW,312,5.0,6.0,61,0.00,,,0.00,Meteo,2013-10-26 06:35:00,
2013-10-26 01:40:00,48.0,36.0,29.64,WNW,292,2.0,4.0,63,0.00,,,0.00,Meteo,2013-10-26 06:40:00,
2013-10-26 01:45:00,48.0,36.0,29.64,NW,311,3.0,5.0,63,0.00,,,0.00,Meteo,2013-10-26 06:45:00,
2013-10-26 01:50:00,48.0,36.0,29.64,NW,312,5.0,9.0,64,0.00,,,0.00,Meteo,2013-10-26 06:50:00,
2013-10-26 01:55:00,48.0,36.0,29.65,NW,309,5.0,12.0,64,0.00,,,0.00,Meteo,2013-10-26 06:55:00,
2013-10-26 02:00:00,48.0,37.0,29.65,WNW,291,4.0,9.0,65,0.00,,,0.00,Meteo,2013-10-26 07:00:00,
2013-10-26 02:05:00,47.0,36.0,29.65,NW,306,3.0,6.0,66,0.00,,,0.00,Meteo,2013-10-26 07:05:00,
2013-10-26 02:10:00,47.0,36.0,29.65,WNW,290,2.0,4.0,66,0.00,,,0.00,Meteo,2013-10-26 07:10:00,
2013-10-26 02:15:00,47.0,36.0,29.65,NW,307,3.0,5.0,66,0.00,,,0.00,Meteo,2013-10-26 07:15:00,
2013-10-26 02:20:00,47.0,35.0,29.66,NNW,330,7.0,12.0,64,0.00,,,0.00,Meteo,2013-10-26 07:20:00,
2013-10-26 02:25:00,47.0,34.0,29.66,WNW,294,9.0,15.0,61,0.00,,,0.00,Meteo,2013-10-26 07:25:00,
2013-10-26 02:30:00,46.0,34.0,29.67,NW,313,7.0,12.0,62,0.00,,,0.00,Meteo,2013-10-26 07:30:00,
2013-10-26 02:35:00,46.0,33.0,29.67,NW,305,8.0,12.0,61,0.00,,,0.00,Meteo,2013-10-26 07:35:00,
2013-10-26 02:40:00,46.0,34.0,29.67,WNW,301,8.0,14.0,62,0.00,,,0.00,Meteo,2013-10-26 07:40:00,
2013-10-26 02:45:00,46.0,34.0,29.67,NW,304,4.0,9.0,63,0.00,,,0.00,Meteo,2013-10-26 07:45:00,
2013-10-26 02:51:00,46.0,33.0,29.68,NW,322,6.0,12.0,61,0.00,,,0.00,Meteo,2013-10-26 07:51:00,
2013-10-26 02:56:00,45.0,32.0,29.68,NW,314,4.0,7.0,61,0.00,,,0.00,Meteo,2013-10-26 07:56:00,
2013-10-26 03:01:00,45.0,32.0,29.68,NW,312,7.0,12.0,61,0.00,,,0.00,Meteo,2013-10-26 08:01:00,
2013-10-26 03:06:00,45.0,33.0,29.68,NW,319,4.0,7.0,62,0.00,,,0.00,Meteo,2013-10-26 08:06:00,
2013-10-26 03:11:00,45.0,33.0,29.68,NW,312,4.0,9.0,63,0.00,,,0.00,Meteo,2013-10-26 08:11:00,
2013-10-26 03:16:00,45.0,33.0,29.68,NW,312,6.0,10.0,62,0.00,,,0.00,Meteo,2013-10-26 08:16:00,
2013-10-26 03:21:00,45.0,33.0,29.68,NW,318,4.0,7.0,63,0.00,,,0.00,Meteo,2013-10-26 08:21:00,
2013-10-26 03:26:00,45.0,33.0,29.68,WNW,294,5.0,10.0,63,0.00,,,0.00,Meteo,2013-10-26 08:26:00,
2013-10-26 03:31:00,45.0,33.0,29.68,NW,306,5.0,9.0,63,0.00,,,0.00,Meteo,2013-10-26 08:31:00,
2013-10-26 03:36:00,45.0,33.0,29.69,WNW,297,4.0,10.0,63,0.00,,,0.00,Meteo,2013-10-26 08:36:00,
2013-10-26 03:41:00,45.0,33.0,29.69,WNW,302,3.0,6.0,63,0.00,,,0.00,Meteo,2013-10-26 08:41:00,
2013-10-26 03:46:00,45.0,33.0,29.69,WNW,297,3.0,7.0,63,0.00,,,0.00,Meteo,2013-10-26 08:46:00,
2013-10-26 03:52:00,45.0,33.0,29.69,NW,314,6.0,11.0,62,0.00,,,0.00,Meteo,2013-10-26 08:52:00,
2013-10-26 03:57:00,45.0,33.0,29.69,NW,304,5.0,8.0,63,0.00,,,0.00,Meteo,2013-10-26 08:57:00,
2013-10-26 04:02:00,45.0,33.0,29.69,NW,320,6.0,9.0,63,0.00,,,0.00,Meteo,2013-10-26 09:02:00,
2013-10-26 04:07:00,45.0,33.0,29.70,NW,312,6.0,10.0,62,0.00,,,0.00,Meteo,2013-10-26 09:07:00,
2013-10-26 04:12:00,45.0,33.0,29.70,NW,306,6.0,12.0,63,0.00,,,0.00,Meteo,2013-10-26 09:12:00,
2013-10-26 04:17:00,45.0,33.0,29.70,NW,316,6.0,11.0,62,0.00,,,0.00,Meteo,2013-10-26 09:17:00,
2013-10-26 04:22:00,44.0,32.0,29.70,NW,313,6.0,10.0,63,0.00,,,0.00,Meteo,2013-10-26 09:22:00,
2013-10-26 04:27:00,44.0,32.0,29.70,NW,313,3.0,6.0,63,0.00,,,0.00,Meteo,2013-10-26 09:27:00,
2013-10-26 04:32:00,44.0,32.0,29.71,NW,317,6.0,9.0,63,0.00,,,0.00,Meteo,2013-10-26 09:32:00,
2013-10-26 04:37:00,44.0,32.0,29.71,NW,309,5.0,10.0,63,0.00,,,0.00,Meteo,2013-10-26 09:37:00,
2013-10-26 04:42:00,44.0,32.0,29.71,NW,307,5.0,9.0,62,0.00,,,0.00,Meteo,2013-10-26 09:42:00,
2013-10-26 04:47:00,44.0,32.0,29.71,WNW,298,4.0,8.0,63,0.00,,,0.00,Meteo,2013-10-26 09:47:00,
2013-10-26 04:52:00,44.0,32.0,29.72,NW,306,6.0,11.0,63,0.00,,,0.00,Meteo,2013-10-26 09:52:00,
2013-10-26 04:57:00,44.0,32.0,29.72,WNW,296,6.0,10.0,62,0.00,,,0.00,Meteo,2013-10-26 09:57:00,
2013-10-26 05:02:00,44.0,32.0,29.72,NW,314,7.0,13.0,62,0.00,,,0.00,Meteo,2013-10-26 10:02:00,
2013-10-26 05:07:00,44.0,32.0,29.73,NW,305,6.0,11.0,62,0.00,,,0.00,Meteo,2013-10-26 10:07:00,
2013-10-26 05:12:00,44.0,32.0,29.73,NW,323,6.0,9.0,62,0.00,,,0.00,Meteo,2013-10-26 10:12:00,
2013-10-26 05:17:00,44.0,32.0,29.73,WNW,303,6.0,11.0,62,0.00,,,0.00,Meteo,2013-10-26 10:17:00,
2013-10-26 05:22:00,44.0,31.0,29.73,NNW,332,7.0,11.0,61,0.00,,,0.00,Meteo,2013-10-26 10:22:00,
2013-10-26 05:27:00,44.0,31.0,29.73,WNW,302,7.0,16.0,61,0.00,,,0.00,Meteo,2013-10-26 10:27:00,
2013-10-26 05:32:00,44.0,31.0,29.74,NW,321,7.0,11.0,61,0.00,,,0.00,Meteo,2013-10-26 10:32:00,
2013-10-26 05:37:00,44.0,32.0,29.74,NW,321,4.0,8.0,62,0.00,,,0.00,Meteo,2013-10-26 10:37:00,
2013-10-26 05:42:00,44.0,32.0,29.75,NNW,336,8.0,13.0,63,0.00,,,0.00,Meteo,2013-10-26 10:42:00,
2013-10-26 05:47:00,43.0,32.0,29.75,NW,318,9.0,14.0,66,0.00,,,0.00,Meteo,2013-10-26 10:47:00,
2013-10-26 05:52:00,43.0,32.0,29.75,NW,308,7.0,12.0,66,0.00,,,0.00,Meteo,2013-10-26 10:52:00,
2013-10-26 05:57:00,43.0,33.0,29.75,NW,326,6.0,8.0,67,0.00,,,0.00,Meteo,2013-10-26 10:57:00,
2013-10-26 06:02:00,43.0,32.0,29.75,NNW,342,7.0,11.0,66,0.00,,,0.00,Meteo,2013-10-26 11:02:00,
2013-10-26 06:07:00,43.0,32.0,29.75,NW,314,7.0,11.0,66,0.00,,,0.00,Meteo,2013-10-26 11:07:00,
2013-10-26 06:12:00,43.0,33.0,29.75,NW,318,6.0,11.0,67,0.00,,,0.00,Meteo,2013-10-26 11:12:00,
2013-10-26 06:17:00,43.0,33.0,29.76,NW,317,5.0,10.0,67,0.00,,,0.00,Meteo,2013-10-26 11:17:00,
2013-10-26 06:22:00,43.0,32.0,29.76,NW,309,2.0,4.0,66,0.00,,,0.00,Meteo,2013-10-26 11:22:00,
2013-10-26 06:27:00,43.0,32.0,29.76,NW,318,3.0,6.0,66,0.00,,,0.00,Meteo,2013-10-26 11:27:00,
2013-10-26 06:32:00,43.0,32.0,29.76,WNW,296,5.0,8.0,66,0.00,,,0.00,Meteo,2013-10-26 11:32:00,
2013-10-26 06:37:00,42.0,31.0,29.76,NW,320,3.0,8.0,65,0.00,,,0.00,Meteo,2013-10-26 11:37:00,
2013-10-26 06:42:00,42.0,31.0,29.76,WNW,302,4.0,8.0,64,0.00,,,0.00,Meteo,2013-10-26 11:42:00,
2013-10-26 06:47:00,42.0,30.0,29.76,NW,310,5.0,9.0,63,0.00,,,0.00,Meteo,2013-10-26 11:47:00,
2013-10-26 06:52:00,42.0,30.0,29.77,NW,307,4.0,7.0,62,0.00,,,0.00,Meteo,2013-10-26 11:52:00,
2013-10-26 06:58:00,43.0,30.0,29.77,NW,320,6.0,10.0,60,0.00,,,0.00,Meteo,2013-10-26 11:58:00,
2013-10-26 07:03:00,42.0,29.0,29.77,NW,323,7.0,11.0,60,0.00,,,0.00,Meteo,2013-10-26 12:03:00,
2013-10-26 07:08:00,43.0,30.0,29.78,NNW,327,7.0,11.0,61,0.00,,,0.00,Meteo,2013-10-26 12:08:00,
2013-10-26 07:13:00,43.0,30.0,29.78,NW,313,6.0,9.0,60,0.00,,,0.00,Meteo,2013-10-26 12:13:00,
2013-10-26 07:18:00,43.0,30.0,29.78,NW,312,2.0,5.0,61,0.00,,,0.00,Meteo,2013-10-26 12:18:00,
2013-10-26 07:23:00,43.0,30.0,29.78,NW,313,3.0,6.0,61,0.00,,,0.00,Meteo,2013-10-26 12:23:00,
2013-10-26 07:28:00,43.0,31.0,29.78,NW,309,4.0,6.0,62,0.00,,,0.00,Meteo,2013-10-26 12:28:00,
2013-10-26 07:33:00,42.0,31.0,29.78,NW,308,7.0,12.0,64,0.00,,,0.00,Meteo,2013-10-26 12:33:00,
2013-10-26 07:38:00,42.0,31.0,29.79,NW,325,6.0,10.0,66,0.00,,,0.00,Meteo,2013-10-26 12:38:00,
2013-10-26 07:44:00,42.0,32.0,29.79,NW,307,5.0,8.0,68,0.00,,,0.00,Meteo,2013-10-26 12:44:00,
2013-10-26 07:49:00,42.0,33.0,29.79,WNW,303,5.0,10.0,69,0.00,,,0.00,Meteo,2013-10-26 12:49:00,
2013-10-26 07:54:00,42.0,33.0,29.80,NNW,327,4.0,10.0,71,0.00,,,0.00,Meteo,2013-10-26 12:54:00,
2013-10-26 07:59:00,42.0,33.0,29.80,NW,319,6.0,9.0,71,0.00,,,0.00,Meteo,2013-10-26 12:59:00,
2013-10-26 08:04:00,42.0,34.0,29.80,NW,312,9.0,13.0,72,0.00,,,0.00,Meteo,2013-10-26 13:04:00,
2013-10-26 08:09:00,42.0,34.0,29.81,NW,305,6.0,12.0,72,0.00,,,0.00,Meteo,2013-10-26 13:09:00,
2013-10-26 08:14:00,42.0,34.0,29.81,NW,322,4.0,7.0,74,0.00,,,0.00,Meteo,2013-10-26 13:14:00,
2013-10-26 08:19:00,41.0,35.0,29.81,NW,308,5.0,9.0,78,0.00,,,0.00,Meteo,2013-10-26 13:19:00,
2013-10-26 08:24:00,40.0,35.0,29.81,NW,319,4.0,8.0,81,0.00,,,0.00,Meteo,2013-10-26 13:24:00,
2013-10-26 08:30:00,40.0,34.0,29.81,NW,310,6.0,9.0,80,0.00,,,0.00,Meteo,2013-10-26 13:30:00,
2013-10-26 08:35:00,40.0,34.0,29.82,WNW,300,5.0,9.0,79,0.00,,,0.00,Meteo,2013-10-26 13:35:00,
2013-10-26 08:40:00,41.0,35.0,29.82,NW,321,5.0,9.0,79,0.00,,,0.00,Meteo,2013-10-26 13:40:00,
2013-10-26 08:45:00,41.0,34.0,29.82,NW,313,8.0,15.0,77,0.00,,,0.00,Meteo,2013-10-26 13:45:00,
2013-10-26 08:50:00,41.0,34.0,29.82,NW,311,6.0,11.0,77,0.00,,,0.00,Meteo,2013-10-26 13:50:00,
2013-10-26 08:55:00,41.0,34.0,29.83,NW,322,8.0,15.0,75,0.00,,,0.00,Meteo,2013-10-26 13:55:00,
2013-10-26 09:00:00,41.0,34.0,29.83,NW,304,7.0,9.0,76,0.00,,,0.00,Meteo,2013-10-26 14:00:00,
2013-10-26 09:05:00,41.0,34.0,29.83,NW,315,7.0,11.0,75,0.00,,,0.00,Meteo,2013-10-26 14:05:00,
2013-10-26 09:10:00,41.0,34.0,29.83,NW,305,7.0,14.0,75,0.00,,,0.00,Meteo,2013-10-26 14:10:00,
2013-10-26 09:15:00,42.0,35.0,29.83,NW,316,6.0,11.0,75,0.00,,,0.00,Meteo,2013-10-26 14:15:00,
2013-10-26 09:20:00,42.0,34.0,29.83,NNW,328,4.0,8.0,74,0.00,,,0.00,Meteo,2013-10-26 14:20:00,
2013-10-26 09:25:00,42.0,34.0,29.84,NW,309,5.0,9.0,74,0.00,,,0.00,Meteo,2013-10-26 14:25:00,
2013-10-26 09:30:00,42.0,34.0,29.84,NW,317,7.0,15.0,73,0.00,,,0.00,Meteo,2013-10-26 14:30:00,
2013-10-26 09:35:00,42.0,34.0,29.84,NNW,331,7.0,13.0,72,0.00,,,0.00,Meteo,2013-10-26 14:35:00,
2013-10-26 09:40:00,42.0,33.0,29.85,NNW,332,10.0,16.0,71,0.00,,,0.00,Meteo,2013-10-26 14:40:00,
2013-10-26 09:45:00,42.0,33.0,29.85,NNW,331,7.0,13.0,71,0.00,,,0.00,Meteo,2013-10-26 14:45:00,
2013-10-26 09:50:00,42.0,33.0,29.85,NNW,337,13.0,19.0,70,0.00,,,0.00,Meteo,2013-10-26 14:50:00,
2013-10-26 09:55:00,42.0,33.0,29.86,NNW,332,7.0,10.0,70,0.00,,,0.00,Meteo,2013-10-26 14:55:00,
2013-10-26 10:00:00,42.0,33.0,29.86,NNW,344,7.0,11.0,71,0.00,,,0.00,Meteo,2013-10-26 15:00:00,
2013-10-26 10:05:00,42.0,34.0,29.86,NNW,346,6.0,9.0,72,0.00,,,0.00,Meteo,2013-10-26 15:05:00,
2013-10-26 10:10:00,42.0,34.0,29.86,NNW,338,6.0,9.0,74,0.00,,,0.00,Meteo,2013-10-26 15:10:00,
2013-10-26 10:15:00,42.0,34.0,29.86,WNW,301,7.0,13.0,73,0.00,,,0.00,Meteo,2013-10-26 15:15:00,
2013-10-26 10:20:00,42.0,34.0,29.86,NNW,337,7.0,12.0,72,0.00,,,0.00,Meteo,2013-10-26 15:20:00,
2013-10-26 10:25:00,42.0,34.0,29.87,NW,316,4.0,6.0,73,0.00,,,0.00,Meteo,2013-10-26 15:25:00,
2013-10-26 10:30:00,42.0,33.0,29.87,NNW,339,7.0,12.0,71,0.00,,,0.00,Meteo,2013-10-26 15:30:00,
2013-10-26 10:35:00,43.0,34.0,29.87,NNW,336,9.0,12.0,71,0.00,,,0.00,Meteo,2013-10-26 15:35:00,
2013-10-26 10:40:00,43.0,34.0,29.88,NW,312,7.0,13.0,71,0.00,,,0.00,Meteo,2013-10-26 15:40:00,
2013-10-26 10:46:00,43.0,34.0,29.88,NNW,332,8.0,12.0,69,0.00,,,0.00,Meteo,2013-10-26 15:46:00,
2013-10-26 10:51:00,43.0,34.0,29.88,NNW,332,5.0,8.0,69,0.00,,,0.00,Meteo,2013-10-26 15:51:00,
2013-10-26 10:56:00,43.0,33.0,29.88,NNW,329,5.0,9.0,68,0.00,,,0.00,Meteo,2013-10-26 15:56:00,
2013-10-26 11:01:00,43.0,33.0,29.88,NW,326,7.0,13.0,68,0.00,,,0.00,Meteo,2013-10-26 16:01:00,
2013-10-26 11:06:00,43.0,33.0,29.89,NNW,331,7.0,10.0,68,0.00,,,0.00,Meteo,2013-10-26 16:06:00,
2013-10-26 11:11:00,43.0,33.0,29.89,NNW,341,5.0,8.0,68,0.00,,,0.00,Meteo,2013-10-26 16:11:00,
2013-10-26 11:16:00,43.0,32.0,29.89,WNW,302,6.0,10.0,66,0.00,,,0.00,Meteo,2013-10-26 16:16:00,
2013-10-26 11:21:00,44.0,33.0,29.90,NW,316,9.0,13.0,65,0.00,,,0.00,Meteo,2013-10-26 16:21:00,
2013-10-26 11:26:00,44.0,33.0,29.90,NNW,338,7.0,12.0,64,0.00,,,0.00,Meteo,2013-10-26 16:26:00,
2013-10-26 11:31:00,44.0,32.0,29.90,NNW,332,4.0,11.0,63,0.00,,,0.00,Meteo,2013-10-26 16:31:00,
2013-10-26 11:36:00,44.0,32.0,29.90,NNW,327,5.0,9.0,63,0.00,,,0.00,Meteo,2013-10-26 16:36:00,
2013-10-26 11:41:00,44.0,32.0,29.91,NW,316,6.0,10.0,63,0.00,,,0.00,Meteo,2013-10-26 16:41:00,
2013-10-26 11:46:00,44.0,32.0,29.91,NNW,332,4.0,7.0,63,0.00,,,0.00,Meteo,2013-10-26 16:46:00,
2013-10-26 11:51:00,44.0,32.0,29.91,NNW,329,5.0,9.0,63,0.00,,,0.00,Meteo,2013-10-26 16:51:00,
2013-10-26 11:56:00,44.0,32.0,29.91,NW,324,9.0,15.0,62,0.00,,,0.00,Meteo,2013-10-26 16:56:00,
2013-10-26 12:01:00,44.0,32.0,29.92,NNW,327,6.0,9.0,62,0.00,,,0.00,Meteo,2013-10-26 17:01:00,
2013-10-26 12:06:00,44.0,31.0,29.92,NNW,346,5.0,8.0,61,0.00,,,0.00,Meteo,2013-10-26 17:06:00,
2013-10-26 12:11:00,44.0,34.0,29.92,NE,38,4.0,6.0,68,0.00,,,0.00,Meteo,2013-10-26 17:11:00,
2013-10-26 12:16:00,44.0,34.0,29.92,NNW,339,2.0,3.0,69,0.00,,,0.00,Meteo,2013-10-26 17:16:00,
2013-10-26 12:21:00,43.0,34.0,29.93,NNW,346,4.0,8.0,69,0.00,,,0.00,Meteo,2013-10-26 17:21:00,
2013-10-26 12:26:00,43.0,34.0,29.93,NNW,338,3.0,6.0,71,0.00,,,0.00,Meteo,2013-10-26 17:26:00,
2013-10-26 12:31:00,43.0,35.0,29.93,NNW,327,3.0,6.0,72,0.00,,,0.00,Meteo,2013-10-26 17:31:00,
2013-10-26 12:36:00,44.0,34.0,29.93,NW,314,7.0,10.0,68,0.00,,,0.00,Meteo,2013-10-26 17:36:00,
2013-10-26 12:41:00,44.0,34.0,29.93,WNW,297,5.0,8.0,67,0.00,,,0.00,Meteo,2013-10-26 17:41:00,
2013-10-26 12:46:00,44.0,33.0,29.93,NW,305,5.0,7.0,66,0.00,,,0.00,Meteo,2013-10-26 17:46:00,
2013-10-26 12:51:00,44.0,33.0,29.93,NNW,337,7.0,11.0,65,0.00,,,0.00,Meteo,2013-10-26 17:51:00,
2013-10-26 12:56:00,44.0,32.0,29.93,NW,316,5.0,8.0,63,0.00,,,0.00,Meteo,2013-10-26 17:56:00,
2013-10-26 13:01:00,44.0,31.0,29.93,NNW,332,5.0,10.0,61,0.00,,,0.00,Meteo,2013-10-26 18:01:00,
2013-10-26 13:06:00,45.0,31.0,29.93,NNW,331,6.0,8.0,58,0.00,,,0.00,Meteo,2013-10-26 18:06:00,
2013-10-26 13:11:00,45.0,31.0,29.94,NW,320,6.0,10.0,57,0.00,,,0.00,Meteo,2013-10-26 18:11:00,
2013-10-26 13:16:00,45.0,29.0,29.93,NNW,336,10.0,14.0,54,0.00,,,0.00,Meteo,2013-10-26 18:16:00,
2013-10-26 13:21:00,45.0,29.0,29.93,NW,318,6.0,10.0,54,0.00,,,0.00,Meteo,2013-10-26 18:21:00,
2013-10-26 13:26:00,45.0,30.0,29.93,NNW,329,5.0,7.0,55,0.00,,,0.00,Meteo,2013-10-26 18:26:00,
2013-10-26 13:31:00,44.0,29.0,29.93,NW,324,5.0,7.0,55,0.00,,,0.00,Meteo,2013-10-26 18:31:00,
2013-10-26 13:36:00,44.0,30.0,29.94,NNW,330,5.0,9.0,57,0.00,,,0.00,Meteo,2013-10-26 18:36:00,
2013-10-26 13:41:00,44.0,28.0,29.94,NW,314,4.0,8.0,53,0.00,,,0.00,Meteo,2013-10-26 18:41:00,
2013-10-26 13:46:00,45.0,30.0,29.94,NW,318,5.0,8.0,55,0.00,,,0.00,Meteo,2013-10-26 18:46:00,
2013-10-26 13:51:00,45.0,30.0,29.94,WNW,301,3.0,6.0,56,0.00,,,0.00,Meteo,2013-10-26 18:51:00,
2013-10-26 13:56:00,45.0,30.0,29.94,NW,310,6.0,9.0,55,0.00,,,0.00,Meteo,2013-10-26 18:56:00,
2013-10-26 14:01:00,45.0,30.0,29.94,NNW,334,7.0,10.0,55,0.00,,,0.00,Meteo,2013-10-26 19:01:00,
2013-10-26 14:06:00,45.0,30.0,29.94,NW,308,7.0,10.0,56,0.00,,,0.00,Meteo,2013-10-26 19:06:00,
2013-10-26 14:11:00,45.0,29.0,29.94,NNW,341,7.0,12.0,54,0.00,,,0.00,Meteo,2013-10-26 19:11:00,
2013-10-26 14:16:00,45.0,29.0,29.94,NW,322,4.0,7.0,53,0.00,,,0.00,Meteo,2013-10-26 19:16:00,
2013-10-26 14:21:00,45.0,29.0,29.94,NW,324,6.0,9.0,53,0.00,,,0.00,Meteo,2013-10-26 19:21:00,
2013-10-26 14:27:00,45.0,29.0,29.94,NNW,328,7.0,11.0,53,0.00,,,0.00,Meteo,2013-10-26 19:27:00,
2013-10-26 14:32:00,44.0,28.0,29.95,NNW,329,5.0,9.0,54,0.00,,,0.00,Meteo,2013-10-26 19:32:00,
2013-10-26 14:37:00,44.0,29.0,29.95,NNW,341,7.0,13.0,55,0.00,,,0.00,Meteo,2013-10-26 19:37:00,
2013-10-26 14:42:00,44.0,29.0,29.95,NNW,342,4.0,9.0,56,0.00,,,0.00,Meteo,2013-10-26 19:42:00,
2013-10-26 14:47:00,43.0,32.0,29.96,NNW,339,7.0,12.0,65,0.00,,,0.00,Meteo,2013-10-26 19:47:00,
2013-10-26 14:52:00,43.0,33.0,29.96,NNW,341,5.0,7.0,68,0.00,,,0.00,Meteo,2013-10-26 19:52:00,
2013-10-26 14:57:00,43.0,34.0,29.96,NNW,348,6.0,10.0,69,0.00,,,0.00,Meteo,2013-10-26 19:57:00,
2013-10-26 15:02:00,42.0,33.0,29.96,NNW,336,7.0,12.0,69,0.00,,,0.00,Meteo,2013-10-26 20:02:00,
2013-10-26 15:07:00,43.0,33.0,29.96,NNW,337,8.0,13.0,67,0.00,,,0.00,Meteo,2013-10-26 20:07:00,
2013-10-26 15:12:00,43.0,32.0,29.95,NNW,327,6.0,9.0,66,0.00,,,0.00,Meteo,2013-10-26 20:12:00,
2013-10-26 15:17:00,43.0,32.0,29.96,NNW,343,3.0,6.0,64,0.00,,,0.00,Meteo,2013-10-26 20:17:00,
2013-10-26 15:22:00,44.0,32.0,29.96,NW,320,5.0,9.0,62,0.00,,,0.00,Meteo,2013-10-26 20:22:00,
2013-10-26 15:27:00,44.0,31.0,29.96,NW,323,5.0,8.0,60,0.00,,,0.00,Meteo,2013-10-26 20:27:00,
2013-10-26 15:32:00,44.0,31.0,29.96,NNW,340,6.0,8.0,59,0.00,,,0.00,Meteo,2013-10-26 20:32:00,
2013-10-26 15:37:00,43.0,30.0,29.96,NNW,330,5.0,8.0,59,0.00,,,0.00,Meteo,2013-10-26 20:37:00,
2013-10-26 15:42:00,43.0,30.0,29.96,NNW,330,4.0,7.0,60,0.00,,,0.00,Meteo,2013-10-26 20:42:00,
2013-10-26 15:47:00,43.0,30.0,29.96,NNW,329,4.0,7.0,59,0.00,,,0.00,Meteo,2013-10-26 20:47:00,
2013-10-26 15:52:00,43.0,30.0,29.97,NNW,331,5.0,8.0,59,0.00,,,0.00,Meteo,2013-10-26 20:52:00,
2013-10-26 15:57:00,43.0,30.0,29.96,NW,321,5.0,8.0,59,0.00,,,0.00,Meteo,2013-10-26 20:57:00,
2013-10-26 16:02:00,44.0,30.0,29.96,NW,318,5.0,8.0,57,0.00,,,0.00,Meteo,2013-10-26 21:02:00,
2013-10-26 16:07:00,44.0,28.0,29.96,NNW,330,6.0,9.0,54,0.00,,,0.00,Meteo,2013-10-26 21:07:00,
2013-10-26 16:12:00,44.0,28.0,29.96,NNW,336,6.0,8.0,54,0.00,,,0.00,Meteo,2013-10-26 21:12:00,
2013-10-26 16:17:00,44.0,29.0,29.96,NW,321,4.0,6.0,55,0.00,,,0.00,Meteo,2013-10-26 21:17:00,
2013-10-26 16:22:00,44.0,28.0,29.96,NNW,332,3.0,6.0,54,0.00,,,0.00,Meteo,2013-10-26 21:22:00,
2013-10-26 16:27:00,44.0,29.0,29.96,NNW,335,2.0,5.0,55,0.00,,,0.00,Meteo,2013-10-26 21:27:00,
2013-10-26 16:32:00,44.0,28.0,29.96,NW,312,5.0,8.0,53,0.00,,,0.00,Meteo,2013-10-26 21:32:00,
2013-10-26 16:37:00,44.0,28.0,29.96,NW,305,4.0,6.0,54,0.00,,,0.00,Meteo,2013-10-26 21:37:00,
2013-10-26 16:42:00,44.0,28.0,29.96,NW,325,7.0,11.0,54,0.00,,,0.00,Meteo,2013-10-26 21:42:00,
2013-10-26 16:47:00,44.0,28.0,29.96,NW,311,5.0,8.0,54,0.00,,,0.00,Meteo,2013-10-26 21:47:00,
2013-10-26 16:52:00,44.0,28.0,29.96,NW,306,5.0,7.0,54,0.00,,,0.00,Meteo,2013-10-26 21:52:00,
2013-10-26 16:57:00,44.0,28.0,29.96,NW,304,4.0,6.0,54,0.00,,,0.00,Meteo,2013-10-26 21:57:00,
2013-10-26 17:02:00,44.0,29.0,29.96,NW,320,4.0,6.0,56,0.00,,,0.00,Meteo,2013-10-26 22:02:00,
2013-10-26 17:07:00,44.0,29.0,29.97,NW,312,4.0,6.0,56,0.00,,,0.00,Meteo,2013-10-26 22:07:00,
2013-10-26 17:12:00,43.0,28.0,29.97,NW,313,3.0,7.0,56,0.00,,,0.00,Meteo,2013-10-26 22:12:00,
2013-10-26 17:17:00,43.0,29.0,29.97,NW,305,3.0,5.0,57,0.00,,,0.00,Meteo,2013-10-26 22:17:00,
2013-10-26 17:22:00,43.0,29.0,29.97,NW,324,2.0,3.0,57,0.00,,,0.00,Meteo,2013-10-26 22:22:00,
2013-10-26 17:27:00,43.0,29.0,29.97,NW,309,5.0,7.0,58,0.00,,,0.00,Meteo,2013-10-26 22:27:00,
2013-10-26 17:32:00,43.0,30.0,29.97,NW,304,4.0,8.0,59,0.00,,,0.00,Meteo,2013-10-26 22:32:00,
2013-10-26 17:37:00,43.0,30.0,29.97,NW,323,1.0,5.0,60,0.00,,,0.00,Meteo,2013-10-26 22:37:00,
2013-10-26 17:42:00,43.0,30.0,29.97,WNW,303,4.0,8.0,60,0.00,,,0.00,Meteo,2013-10-26 22:42:00,
2013-10-26 17:47:00,43.0,30.0,29.97,NW,310,3.0,5.0,59,0.00,,,0.00,Meteo,2013-10-26 22:47:00,
2013-10-26 17:52:00,43.0,30.0,29.97,NW,319,2.0,4.0,60,0.00,,,0.00,Meteo,2013-10-26 22:52:00,
2013-10-26 17:57:00,43.0,30.0,29.97,NW,324,2.0,4.0,59,0.00,,,0.00,Meteo,2013-10-26 22:57:00,
2013-10-26 18:03:00,43.0,30.0,29.97,NW,304,3.0,6.0,59,0.00,,,0.00,Meteo,2013-10-26 23:03:00,
2013-10-26 18:08:00,43.0,30.0,29.98,West,280,2.0,4.0,59,0.00,,,0.00,Meteo,2013-10-26 23:08:00,
2013-10-26 18:13:00,43.0,30.0,29.98,NW,318,2.0,6.0,60,0.00,,,0.00,Meteo,2013-10-26 23:13:00,
2013-10-26 18:18:00,43.0,30.0,29.98,NW,323,3.0,5.0,61,0.00,,,0.00,Meteo,2013-10-26 23:18:00,
2013-10-26 18:23:00,43.0,30.0,29.98,NNW,330,2.0,3.0,61,0.00,,,0.00,Meteo,2013-10-26 23:23:00,
2013-10-26 18:28:00,42.0,30.0,29.98,NW,310,2.0,3.0,62,0.00,,,0.00,Meteo,2013-10-26 23:28:00,
2013-10-26 18:33:00,42.0,30.0,29.98,NW,312,3.0,5.0,62,0.00,,,0.00,Meteo,2013-10-26 23:33:00,
2013-10-26 18:38:00,42.0,30.0,29.98,NW,304,3.0,4.0,62,0.00,,,0.00,Meteo,2013-10-26 23:38:00,
2013-10-26 18:43:00,42.0,30.0,29.98,NW,308,4.0,7.0,62,0.00,,,0.00,Meteo,2013-10-26 23:43:00,
2013-10-26 18:49:00,42.0,30.0,29.98,NW,306,3.0,4.0,62,0.00,,,0.00,Meteo,2013-10-26 23:49:00,
2013-10-26 18:54:00,42.0,30.0,29.98,WNW,301,3.0,6.0,62,0.00,,,0.00,Meteo,2013-10-26 23:54:00,
2013-10-26 18:59:00,42.0,30.0,29.98,NW,310,1.0,3.0,63,0.00,,,0.00,Meteo,2013-10-26 23:59:00,
2013-10-26 19:04:00,42.0,31.0,29.98,North,0,0.0,0.0,64,0.00,,,0.00,Meteo,2013-10-27 00:04:00,
2013-10-26 19:09:00,42.0,30.0,29.98,NW,320,2.0,4.0,63,0.00,,,0.00,Meteo,2013-10-27 00:09:00,
2013-10-26 19:14:00,42.0,30.0,29.98,NW,307,0.0,2.0,63,0.00,,,0.00,Meteo,2013-10-27 00:14:00,
2013-10-26 19:19:00,42.0,30.0,29.98,WNW,303,2.0,4.0,63,0.00,,,0.00,Meteo,2013-10-27 00:19:00,
2013-10-26 19:24:00,42.0,30.0,29.98,North,0,0.0,0.0,63,0.00,,,0.00,Meteo,2013-10-27 00:24:00,
2013-10-26 19:29:00,42.0,30.0,29.98,NW,310,1.0,2.0,63,0.00,,,0.00,Meteo,2013-10-27 00:29:00,
2013-10-26 19:34:00,42.0,30.0,29.98,WNW,294,1.0,2.0,63,0.00,,,0.00,Meteo,2013-10-27 00:34:00,
2013-10-26 19:39:00,42.0,30.0,29.98,NW,307,1.0,2.0,63,0.00,,,0.00,Meteo,2013-10-27 00:39:00,
2013-10-26 19:44:00,42.0,31.0,29.98,WNW,301,0.0,1.0,64,0.00,,,0.00,Meteo,2013-10-27 00:44:00,
2013-10-26 19:49:00,42.0,31.0,29.99,North,0,0.0,0.0,65,0.00,,,0.00,Meteo,2013-10-27 00:49:00,
2013-10-26 19:54:00,42.0,31.0,29.98,NW,306,1.0,2.0,65,0.00,,,0.00,Meteo,2013-10-27 00:54:00,
2013-10-26 19:59:00,42.0,31.0,29.98,NW,325,0.0,1.0,65,0.00,,,0.00,Meteo,2013-10-27 00:59:00,
2013-10-26 20:04:00,42.0,31.0,29.98,NW,315,1.0,2.0,65,0.00,,,0.00,Meteo,2013-10-27 01:04:00,
2013-10-26 20:09:00,42.0,31.0,29.98,North,0,0.0,0.0,65,0.00,,,0.00,Meteo,2013-10-27 01:09:00,
2013-10-26 20:14:00,42.0,31.0,29.98,NW,311,2.0,5.0,64,0.00,,,0.00,Meteo,2013-10-27 01:14:00,
2013-10-26 20:19:00,42.0,31.0,29.98,NW,309,0.0,1.0,64,0.00,,,0.00,Meteo,2013-10-27 01:19:00,
2013-10-26 20:24:00,42.0,31.0,29.98,NW,318,0.0,1.0,65,0.00,,,0.00,Meteo,2013-10-27 01:24:00,
2013-10-26 20:29:00,42.0,31.0,29.98,North,0,0.0,0.0,65,0.00,,,0.00,Meteo,2013-10-27 01:29:00,
2013-10-26 20:34:00,42.0,31.0,29.98,North,0,0.0,0.0,66,0.00,,,0.00,Meteo,2013-10-27 01:34:00,
2013-10-26 20:39:00,41.0,31.0,29.98,NW,318,0.0,2.0,66,0.00,,,0.00,Meteo,2013-10-27 01:39:00,
2013-10-26 20:44:00,41.0,31.0,29.98,North,0,0.0,0.0,67,0.00,,,0.00,Meteo,2013-10-27 01:44:00,
2013-10-26 20:49:00,41.0,31.0,29.97,North,0,0.0,0.0,68,0.00,,,0.00,Meteo,2013-10-27 01:49:00,
2013-10-26 20:54:00,41.0,32.0,29.97,North,0,0.0,0.0,69,0.00,,,0.00,Meteo,2013-10-27 01:54:00,
2013-10-26 20:59:00,41.0,32.0,29.97,North,0,0.0,0.0,69,0.00,,,0.00,Meteo,2013-10-27 01:59:00,
2013-10-26 21:04:00,41.0,32.0,29.96,North,0,0.0,0.0,71,0.00,,,0.00,Meteo,2013-10-27 02:04:00,
2013-10-26 21:09:00,41.0,32.0,29.96,North,0,0.0,0.0,71,0.00,,,0.00,Meteo,2013-10-27 02:09:00,
2013-10-26 21:14:00,40.0,31.0,29.96,North,0,0.0,0.0,71,0.00,,,0.00,Meteo,2013-10-27 02:14:00,
2013-10-26 21:19:00,40.0,31.0,29.96,North,0,0.0,0.0,71,0.00,,,0.00,Meteo,2013-10-27 02:19:00,
2013-10-26 21:24:00,40.0,31.0,29.96,North,0,0.0,0.0,71,0.00,,,0.00,Meteo,2013-10-27 02:24:00,
2013-10-26 21:29:00,40.0,32.0,29.96,NW,318,0.0,1.0,72,0.00,,,0.00,Meteo,2013-10-27 02:29:00,
2013-10-26 21:34:00,40.0,32.0,29.96,NW,318,0.0,1.0,72,0.00,,,0.00,Meteo,2013-10-27 02:34:00,
2013-10-26 21:39:00,40.0,32.0,29.96,NW,318,0.0,1.0,72,0.00,,,0.00,Meteo,2013-10-27 02:39:00,
2013-10-26 21:44:00,40.0,32.0,29.97,North,0,0.0,0.0,72,0.00,,,0.00,Meteo,2013-10-27 02:44:00,
2013-10-26 21:49:00,40.0,32.0,29.96,North,0,0.0,0.0,72,0.00,,,0.00,Meteo,2013-10-27 02:49:00,
2013-10-26 21:54:00,40.0,32.0,29.97,North,0,0.0,0.0,72,0.00,,,0.00,Meteo,2013-10-27 02:54:00,
2013-10-26 21:59:00,40.0,32.0,29.97,North,0,0.0,0.0,72,0.00,,,0.00,Meteo,2013-10-27 02:59:00,
2013-10-26 22:04:00,40.0,32.0,29.97,North,0,0.0,0.0,72,0.00,,,0.00,Meteo,2013-10-27 03:04:00,
2013-10-26 22:09:00,40.0,32.0,29.96,NW,309,0.0,1.0,73,0.00,,,0.00,Meteo,2013-10-27 03:09:00,
2013-10-26 22:14:00,40.0,32.0,29.96,North,0,0.0,0.0,73,0.00,,,0.00,Meteo,2013-10-27 03:14:00,
2013-10-26 22:19:00,40.0,32.0,29.96,WNW,282,0.0,1.0,73,0.00,,,0.00,Meteo,2013-10-27 03:19:00,
2013-10-26 22:24:00,40.0,32.0,29.96,West,263,0.0,1.0,73,0.00,,,0.00,Meteo,2013-10-27 03:24:00,
2013-10-26 22:29:00,40.0,32.0,29.96,North,0,0.0,0.0,73,0.00,,,0.00,Meteo,2013-10-27 03:29:00,
2013-10-26 22:34:00,40.0,32.0,29.96,North,0,0.0,0.0,73,0.00,,,0.00,Meteo,2013-10-27 03:34:00,
2013-10-26 22:39:00,40.0,32.0,29.96,North,0,0.0,0.0,73,0.00,,,0.00,Meteo,2013-10-27 03:39:00,
2013-10-26 22:44:00,40.0,32.0,29.96,North,0,0.0,0.0,73,0.00,,,0.00,Meteo,2013-10-27 03:44:00,
2013-10-26 22:49:00,40.0,32.0,29.95,North,0,0.0,0.0,73,0.00,,,0.00,Meteo,2013-10-27 03:49:00,
2013-10-26 22:54:00,40.0,32.0,29.96,WSW,238,0.0,2.0,74,0.00,,,0.00,Meteo,2013-10-27 03:54:00,
2013-10-26 22:59:00,40.0,32.0,29.96,SW,227,0.0,1.0,73,0.00,,,0.00,Meteo,2013-10-27 03:59:00,
2013-10-26 23:01:00,40.0,32.0,29.95,SW,217,1.0,2.0,73,0.00,,,0.00,Meteo,2013-10-27 04:01:00,
2013-10-26 23:02:00,40.0,32.0,29.95,SW,214,0.0,1.0,73,0.00,,,0.00,Meteo,2013-10-27 04:02:00,
2013-10-26 23:04:00,40.0,32.0,29.95,SSW,203,0.0,1.0,73,0.00,,,0.00,Meteo,2013-10-27 04:04:00,
2013-10-26 23:06:00,40.0,32.0,29.95,SSW,203,1.0,2.0,73,0.00,,,0.00,Meteo,2013-10-27 04:06:00,
2013-10-26 23:11:00,40.0,32.0,29.95,South,180,0.0,1.0,73,0.00,,,0.00,Meteo,2013-10-27 04:11:00,
2013-10-26 23:12:00,40.0,32.0,29.94,South,182,0.0,1.0,73,0.00,,,0.00,Meteo,2013-10-27 04:12:00,
2013-10-26 23:17:00,40.0,32.0,29.94,South,183,0.0,1.0,73,0.00,,,0.00,Meteo,2013-10-27 04:17:00,
2013-10-26 23:19:00,40.0,32.0,29.94,South,187,0.0,2.0,73,0.00,,,0.00,Meteo,2013-10-27 04:19:00,
2013-10-26 23:24:00,40.0,32.0,29.94,South,187,0.0,1.0,73,0.00,,,0.00,Meteo,2013-10-27 04:24:00,
2013-10-26 23:29:00,40.0,32.0,29.94,North,0,0.0,0.0,72,0.00,,,0.00,Meteo,2013-10-27 04:29:00,
2013-10-26 23:34:00,40.0,32.0,29.94,South,187,0.0,1.0,72,0.00,,,0.00,Meteo,2013-10-27 04:34:00,
2013-10-26 23:39:00,40.0,31.0,29.94,SSW,209,0.0,2.0,71,0.00,,,0.00,Meteo,2013-10-27 04:39:00,
2013-10-26 23:44:00,40.0,31.0,29.94,North,0,0.0,0.0,71,0.00,,,0.00,Meteo,2013-10-27 04:44:00,
2013-10-26 23:49:00,40.0,31.0,29.94,SW,224,1.0,2.0,71,0.00,,,0.00,Meteo,2013-10-27 04:49:00,
2013-10-26 23:54:00,40.0,31.0,29.93,SW,224,1.0,3.0,71,0.00,,,0.00,Meteo,2013-10-27 04:54:00,
2013-10-26 23:59:00,40.0,31.0,29.93,WSW,239,0.0,1.0,71,0.00,,,0.00,Meteo,2013-10-27 04:59:00,